sensor_id;sensor_type;location;lat;lon;timestamp;P1;durP1;ratioP1;P2;durP2;ratioP2
39176;SDS011;24904;52.208;21.192;2024-03-25T00:04:26;15.90;;;9.80;;
39176;SDS011;24904;52.208;21.192;2024-03-25T00:09:31;13.70;;;9.50;;
39176;SDS011;24904;52.208;21.192;2024-03-25T00:14:36;20.50;;;11.80;;
39176;SDS011;24904;52.208;21.192;2024-03-25T00:19:41;20.20;;;13.10;;
39176;SDS011;24904;52.208;21.192;2024-03-25T00:24:52;19.00;;;12.10;;
39176;SDS011;24904;52.208;21.192;2024-03-25T00:29:56;18.60;;;12.60;;
39176;SDS011;24904;52.208;21.192;2024-03-25T00:35:01;20.70;;;13.20;;
39176;SDS011;24904;52.208;21.192;2024-03-25T00:40:07;21.20;;;14.10;;
39176;SDS011;24904;52.208;21.192;2024-03-25T00:45:13;24.40;;;13.90;;
39176;SDS011;24904;52.208;21.192;2024-03-25T00:50:18;20.70;;;13.60;;
39176;SDS011;24904;52.208;21.192;2024-03-25T00:55:23;24.60;;;15.50;;
39176;SDS011;24904;52.208;21.192;2024-03-25T01:00:28;23.40;;;14.20;;
39176;SDS011;24904;52.208;21.192;2024-03-25T01:05:32;23.10;;;14.90;;
39176;SDS011;24904;52.208;21.192;2024-03-25T01:10:37;20.30;;;13.80;;
39176;SDS011;24904;52.208;21.192;2024-03-25T01:15:42;22.50;;;14.40;;
39176;SDS011;24904;52.208;21.192;2024-03-25T01:20:46;22.30;;;13.90;;
39176;SDS011;24904;52.208;21.192;2024-03-25T01:25:51;24.70;;;14.70;;
39176;SDS011;24904;52.208;21.192;2024-03-25T01:30:56;23.10;;;15.00;;
39176;SDS011;24904;52.208;21.192;2024-03-25T01:36:01;24.40;;;13.90;;
39176;SDS011;24904;52.208;21.192;2024-03-25T01:41:09;23.00;;;14.30;;
39176;SDS011;24904;52.208;21.192;2024-03-25T01:46:14;21.30;;;14.00;;
39176;SDS011;24904;52.208;21.192;2024-03-25T01:51:20;22.10;;;14.20;;
39176;SDS011;24904;52.208;21.192;2024-03-25T01:56:25;20.80;;;12.60;;
39176;SDS011;24904;52.208;21.192;2024-03-25T02:01:33;21.30;;;13.40;;
39176;SDS011;24904;52.208;21.192;2024-03-25T02:06:38;21.70;;;12.10;;
39176;SDS011;24904;52.208;21.192;2024-03-25T02:11:45;19.60;;;12.70;;
39176;SDS011;24904;52.208;21.192;2024-03-25T02:16:50;21.00;;;12.40;;
39176;SDS011;24904;52.208;21.192;2024-03-25T02:21:54;19.90;;;12.70;;
39176;SDS011;24904;52.208;21.192;2024-03-25T02:26:59;19.40;;;12.40;;
39176;SDS011;24904;52.208;21.192;2024-03-25T02:32:04;18.70;;;12.70;;
39176;SDS011;24904;52.208;21.192;2024-03-25T02:37:12;18.80;;;11.80;;
39176;SDS011;24904;52.208;21.192;2024-03-25T02:42:16;19.90;;;12.10;;
39176;SDS011;24904;52.208;21.192;2024-03-25T02:47:22;18.50;;;12.10;;
39176;SDS011;24904;52.208;21.192;2024-03-25T02:52:27;19.80;;;12.30;;
39176;SDS011;24904;52.208;21.192;2024-03-25T02:57:31;20.50;;;12.50;;
39176;SDS011;24904;52.208;21.192;2024-03-25T03:02:36;19.50;;;11.80;;
39176;SDS011;24904;52.208;21.192;2024-03-25T03:07:41;21.00;;;13.10;;
39176;SDS011;24904;52.208;21.192;2024-03-25T03:12:45;20.80;;;11.80;;
39176;SDS011;24904;52.208;21.192;2024-03-25T03:17:50;18.50;;;12.20;;
39176;SDS011;24904;52.208;21.192;2024-03-25T03:22:54;17.30;;;11.90;;
39176;SDS011;24904;52.208;21.192;2024-03-25T03:27:59;18.20;;;11.30;;
39176;SDS011;24904;52.208;21.192;2024-03-25T03:33:04;17.10;;;11.10;;
39176;SDS011;24904;52.208;21.192;2024-03-25T03:38:09;17.40;;;11.40;;
39176;SDS011;24904;52.208;21.192;2024-03-25T03:43:13;21.10;;;12.00;;
39176;SDS011;24904;52.208;21.192;2024-03-25T03:48:18;18.70;;;11.70;;
39176;SDS011;24904;52.208;21.192;2024-03-25T03:53:23;18.60;;;12.50;;
39176;SDS011;24904;52.208;21.192;2024-03-25T03:58:28;19.00;;;12.60;;
39176;SDS011;24904;52.208;21.192;2024-03-25T04:03:33;21.00;;;12.80;;
39176;SDS011;24904;52.208;21.192;2024-03-25T04:08:37;23.10;;;13.30;;
39176;SDS011;24904;52.208;21.192;2024-03-25T04:13:43;20.90;;;13.10;;
39176;SDS011;24904;52.208;21.192;2024-03-25T04:18:48;26.50;;;13.60;;
39176;SDS011;24904;52.208;21.192;2024-03-25T04:23:53;23.90;;;13.30;;
39176;SDS011;24904;52.208;21.192;2024-03-25T04:28:58;22.00;;;13.50;;
39176;SDS011;24904;52.208;21.192;2024-03-25T04:34:02;23.90;;;13.70;;
39176;SDS011;24904;52.208;21.192;2024-03-25T04:39:07;25.60;;;14.10;;
39176;SDS011;24904;52.208;21.192;2024-03-25T04:44:13;27.40;;;14.90;;
39176;SDS011;24904;52.208;21.192;2024-03-25T04:49:19;21.40;;;13.80;;
39176;SDS011;24904;52.208;21.192;2024-03-25T04:54:24;22.10;;;14.90;;
39176;SDS011;24904;52.208;21.192;2024-03-25T04:59:29;22.90;;;14.90;;
39176;SDS011;24904;52.208;21.192;2024-03-25T05:04:33;21.30;;;13.00;;
39176;SDS011;24904;52.208;21.192;2024-03-25T05:09:38;22.20;;;14.20;;
39176;SDS011;24904;52.208;21.192;2024-03-25T05:14:43;22.70;;;14.50;;
39176;SDS011;24904;52.208;21.192;2024-03-25T05:19:47;22.00;;;14.30;;
39176;SDS011;24904;52.208;21.192;2024-03-25T05:24:52;22.30;;;13.90;;
39176;SDS011;24904;52.208;21.192;2024-03-25T05:29:57;26.50;;;15.50;;
39176;SDS011;24904;52.208;21.192;2024-03-25T05:35:01;25.20;;;14.90;;
39176;SDS011;24904;52.208;21.192;2024-03-25T05:40:08;23.80;;;14.50;;
39176;SDS011;24904;52.208;21.192;2024-03-25T05:45:14;25.80;;;15.60;;
39176;SDS011;24904;52.208;21.192;2024-03-25T05:50:18;24.00;;;13.80;;
39176;SDS011;24904;52.208;21.192;2024-03-25T05:55:23;22.80;;;14.70;;
39176;SDS011;24904;52.208;21.192;2024-03-25T06:00:28;23.50;;;13.50;;
39176;SDS011;24904;52.208;21.192;2024-03-25T06:05:33;24.30;;;14.10;;
39176;SDS011;24904;52.208;21.192;2024-03-25T06:10:38;23.60;;;14.80;;
39176;SDS011;24904;52.208;21.192;2024-03-25T06:15:43;23.70;;;14.40;;
39176;SDS011;24904;52.208;21.192;2024-03-25T06:20:48;24.00;;;14.00;;
39176;SDS011;24904;52.208;21.192;2024-03-25T06:25:53;21.30;;;12.70;;
39176;SDS011;24904;52.208;21.192;2024-03-25T06:30:58;20.00;;;13.20;;
39176;SDS011;24904;52.208;21.192;2024-03-25T06:36:21;24.50;;;13.50;;
39176;SDS011;24904;52.208;21.192;2024-03-25T06:41:26;17.80;;;11.80;;
39176;SDS011;24904;52.208;21.192;2024-03-25T06:46:30;22.10;;;12.70;;
39176;SDS011;24904;52.208;21.192;2024-03-25T06:51:35;18.70;;;11.20;;
39176;SDS011;24904;52.208;21.192;2024-03-25T06:56:40;17.70;;;10.20;;
39176;SDS011;24904;52.208;21.192;2024-03-25T07:01:44;17.70;;;11.00;;
39176;SDS011;24904;52.208;21.192;2024-03-25T07:06:49;23.30;;;10.90;;
39176;SDS011;24904;52.208;21.192;2024-03-25T07:11:54;23.40;;;10.90;;
39176;SDS011;24904;52.208;21.192;2024-03-25T07:16:59;16.90;;;9.90;;
39176;SDS011;24904;52.208;21.192;2024-03-25T07:22:03;16.60;;;8.80;;
39176;SDS011;24904;52.208;21.192;2024-03-25T07:27:08;21.00;;;10.80;;
39176;SDS011;24904;52.208;21.192;2024-03-25T07:32:13;21.90;;;10.00;;
39176;SDS011;24904;52.208;21.192;2024-03-25T07:37:17;19.40;;;9.50;;
39176;SDS011;24904;52.208;21.192;2024-03-25T07:42:22;15.60;;;10.00;;
39176;SDS011;24904;52.208;21.192;2024-03-25T07:47:27;22.20;;;11.40;;
39176;SDS011;24904;52.208;21.192;2024-03-25T07:52:32;14.40;;;8.50;;
39176;SDS011;24904;52.208;21.192;2024-03-25T07:57:41;15.40;;;8.70;;
39176;SDS011;24904;52.208;21.192;2024-03-25T08:02:46;17.30;;;9.40;;
39176;SDS011;24904;52.208;21.192;2024-03-25T08:07:52;17.70;;;9.80;;
39176;SDS011;24904;52.208;21.192;2024-03-25T08:12:57;16.50;;;7.80;;
39176;SDS011;24904;52.208;21.192;2024-03-25T08:18:01;13.60;;;7.70;;
39176;SDS011;24904;52.208;21.192;2024-03-25T08:23:06;18.20;;;8.20;;
39176;SDS011;24904;52.208;21.192;2024-03-25T08:28:11;15.00;;;7.30;;
39176;SDS011;24904;52.208;21.192;2024-03-25T08:33:16;13.10;;;6.70;;
39176;SDS011;24904;52.208;21.192;2024-03-25T08:38:20;11.00;;;6.60;;
39176;SDS011;24904;52.208;21.192;2024-03-25T08:43:25;9.60;;;5.70;;
39176;SDS011;24904;52.208;21.192;2024-03-25T08:48:30;11.70;;;6.20;;
39176;SDS011;24904;52.208;21.192;2024-03-25T08:53:35;12.80;;;6.20;;
39176;SDS011;24904;52.208;21.192;2024-03-25T08:58:39;12.70;;;5.80;;
39176;SDS011;24904;52.208;21.192;2024-03-25T09:03:44;8.30;;;5.40;;
39176;SDS011;24904;52.208;21.192;2024-03-25T09:08:49;11.70;;;6.00;;
39176;SDS011;24904;52.208;21.192;2024-03-25T09:14:12;6.60;;;4.60;;
39176;SDS011;24904;52.208;21.192;2024-03-25T09:19:17;8.20;;;5.20;;
39176;SDS011;24904;52.208;21.192;2024-03-25T09:24:21;7.90;;;4.60;;
39176;SDS011;24904;52.208;21.192;2024-03-25T09:29:26;8.40;;;4.90;;
39176;SDS011;24904;52.208;21.192;2024-03-25T09:34:31;9.00;;;4.80;;
39176;SDS011;24904;52.208;21.192;2024-03-25T09:39:36;9.70;;;6.20;;
39176;SDS011;24904;52.208;21.192;2024-03-25T09:44:41;10.80;;;5.50;;
39176;SDS011;24904;52.208;21.192;2024-03-25T09:49:45;11.80;;;5.10;;
39176;SDS011;24904;52.208;21.192;2024-03-25T09:54:51;11.00;;;5.50;;
39176;SDS011;24904;52.208;21.192;2024-03-25T09:59:56;8.10;;;5.10;;
39176;SDS011;24904;52.208;21.192;2024-03-25T10:05:01;8.90;;;4.70;;
39176;SDS011;24904;52.208;21.192;2024-03-25T10:10:08;8.50;;;5.00;;
39176;SDS011;24904;52.208;21.192;2024-03-25T10:15:16;6.30;;;4.10;;
39176;SDS011;24904;52.208;21.192;2024-03-25T10:20:22;16.90;;;4.60;;
39176;SDS011;24904;52.208;21.192;2024-03-25T10:25:27;7.70;;;4.50;;
39176;SDS011;24904;52.208;21.192;2024-03-25T10:30:32;8.60;;;5.20;;
39176;SDS011;24904;52.208;21.192;2024-03-25T10:35:37;6.60;;;4.00;;
39176;SDS011;24904;52.208;21.192;2024-03-25T10:40:43;7.80;;;4.00;;
39176;SDS011;24904;52.208;21.192;2024-03-25T10:45:49;7.50;;;3.40;;
39176;SDS011;24904;52.208;21.192;2024-03-25T10:50:58;6.50;;;3.30;;
39176;SDS011;24904;52.208;21.192;2024-03-25T10:56:04;7.40;;;4.10;;
39176;SDS011;24904;52.208;21.192;2024-03-25T11:01:10;7.60;;;4.10;;
39176;SDS011;24904;52.208;21.192;2024-03-25T11:06:15;5.90;;;3.50;;
39176;SDS011;24904;52.208;21.192;2024-03-25T11:11:19;7.30;;;3.70;;
39176;SDS011;24904;52.208;21.192;2024-03-25T11:16:27;5.90;;;3.20;;
39176;SDS011;24904;52.208;21.192;2024-03-25T11:21:33;9.50;;;3.60;;
39176;SDS011;24904;52.208;21.192;2024-03-25T11:26:41;9.10;;;3.70;;
39176;SDS011;24904;52.208;21.192;2024-03-25T11:31:47;6.60;;;3.70;;
39176;SDS011;24904;52.208;21.192;2024-03-25T11:36:54;7.50;;;3.90;;
39176;SDS011;24904;52.208;21.192;2024-03-25T11:41:59;6.00;;;3.00;;
39176;SDS011;24904;52.208;21.192;2024-03-25T11:47:04;8.40;;;3.60;;
39176;SDS011;24904;52.208;21.192;2024-03-25T11:52:11;6.50;;;3.70;;
39176;SDS011;24904;52.208;21.192;2024-03-25T11:57:18;5.70;;;3.50;;
39176;SDS011;24904;52.208;21.192;2024-03-25T12:02:22;7.80;;;3.80;;
39176;SDS011;24904;52.208;21.192;2024-03-25T12:07:27;6.50;;;3.20;;
39176;SDS011;24904;52.208;21.192;2024-03-25T12:12:32;4.90;;;3.20;;
39176;SDS011;24904;52.208;21.192;2024-03-25T12:17:37;6.30;;;3.30;;
39176;SDS011;24904;52.208;21.192;2024-03-25T12:22:43;7.00;;;3.20;;
39176;SDS011;24904;52.208;21.192;2024-03-25T12:27:48;5.60;;;3.10;;
39176;SDS011;24904;52.208;21.192;2024-03-25T12:32:52;5.80;;;3.50;;
39176;SDS011;24904;52.208;21.192;2024-03-25T12:37:59;12.30;;;3.50;;
39176;SDS011;24904;52.208;21.192;2024-03-25T12:43:04;9.10;;;3.60;;
39176;SDS011;24904;52.208;21.192;2024-03-25T12:48:08;13.20;;;3.70;;
39176;SDS011;24904;52.208;21.192;2024-03-25T12:53:16;6.50;;;3.10;;
39176;SDS011;24904;52.208;21.192;2024-03-25T12:58:21;4.90;;;2.80;;
39176;SDS011;24904;52.208;21.192;2024-03-25T13:03:26;7.20;;;2.90;;
39176;SDS011;24904;52.208;21.192;2024-03-25T13:08:31;6.00;;;2.70;;
39176;SDS011;24904;52.208;21.192;2024-03-25T13:13:35;10.60;;;2.60;;
39176;SDS011;24904;52.208;21.192;2024-03-25T13:18:40;6.20;;;2.60;;
39176;SDS011;24904;52.208;21.192;2024-03-25T13:23:45;6.40;;;2.90;;
39176;SDS011;24904;52.208;21.192;2024-03-25T13:28:49;3.60;;;2.20;;
39176;SDS011;24904;52.208;21.192;2024-03-25T13:33:54;4.20;;;2.10;;
39176;SDS011;24904;52.208;21.192;2024-03-25T13:38:59;6.20;;;2.60;;
39176;SDS011;24904;52.208;21.192;2024-03-25T13:44:04;3.70;;;2.40;;
39176;SDS011;24904;52.208;21.192;2024-03-25T13:49:09;4.60;;;2.70;;
39176;SDS011;24904;52.208;21.192;2024-03-25T13:54:14;5.90;;;2.20;;
39176;SDS011;24904;52.208;21.192;2024-03-25T13:59:18;7.40;;;2.50;;
39176;SDS011;24904;52.208;21.192;2024-03-25T14:04:23;3.90;;;2.50;;
39176;SDS011;24904;52.208;21.192;2024-03-25T14:09:27;4.50;;;2.60;;
39176;SDS011;24904;52.208;21.192;2024-03-25T14:14:32;3.70;;;2.20;;
39176;SDS011;24904;52.208;21.192;2024-03-25T14:19:37;3.60;;;2.20;;
39176;SDS011;24904;52.208;21.192;2024-03-25T14:24:42;6.40;;;2.40;;
39176;SDS011;24904;52.208;21.192;2024-03-25T14:29:46;5.60;;;2.60;;
39176;SDS011;24904;52.208;21.192;2024-03-25T14:34:51;8.90;;;3.00;;
39176;SDS011;24904;52.208;21.192;2024-03-25T14:39:57;6.20;;;3.00;;
39176;SDS011;24904;52.208;21.192;2024-03-25T14:45:02;5.30;;;3.00;;
39176;SDS011;24904;52.208;21.192;2024-03-25T14:50:09;4.80;;;3.50;;
39176;SDS011;24904;52.208;21.192;2024-03-25T14:55:13;7.70;;;4.50;;
39176;SDS011;24904;52.208;21.192;2024-03-25T15:00:18;6.80;;;4.10;;
39176;SDS011;24904;52.208;21.192;2024-03-25T15:05:23;7.60;;;3.70;;
39176;SDS011;24904;52.208;21.192;2024-03-25T15:10:27;7.60;;;3.70;;
39176;SDS011;24904;52.208;21.192;2024-03-25T15:15:39;5.50;;;3.20;;
39176;SDS011;24904;52.208;21.192;2024-03-25T15:20:46;7.60;;;3.20;;
39176;SDS011;24904;52.208;21.192;2024-03-25T15:25:50;4.70;;;3.30;;
39176;SDS011;24904;52.208;21.192;2024-03-25T15:30:55;5.20;;;3.50;;
39176;SDS011;24904;52.208;21.192;2024-03-25T15:36:00;8.00;;;3.70;;
39176;SDS011;24904;52.208;21.192;2024-03-25T15:41:04;5.00;;;3.20;;
39176;SDS011;24904;52.208;21.192;2024-03-25T15:46:09;6.00;;;3.40;;
39176;SDS011;24904;52.208;21.192;2024-03-25T15:51:14;6.50;;;3.40;;
39176;SDS011;24904;52.208;21.192;2024-03-25T15:56:19;4.60;;;2.60;;
39176;SDS011;24904;52.208;21.192;2024-03-25T16:01:24;7.40;;;3.90;;
39176;SDS011;24904;52.208;21.192;2024-03-25T16:06:28;7.40;;;3.10;;
39176;SDS011;24904;52.208;21.192;2024-03-25T16:11:33;7.10;;;4.50;;
39176;SDS011;24904;52.208;21.192;2024-03-25T16:16:39;7.50;;;3.40;;
39176;SDS011;24904;52.208;21.192;2024-03-25T16:34:33;4.80;;;2.70;;
39176;SDS011;24904;52.208;21.192;2024-03-25T16:39:36;5.00;;;3.20;;
39176;SDS011;24904;52.208;21.192;2024-03-25T16:44:40;8.90;;;5.60;;
39176;SDS011;24904;52.208;21.192;2024-03-25T16:49:43;7.30;;;4.50;;
39176;SDS011;24904;52.208;21.192;2024-03-25T16:54:47;8.50;;;4.80;;
39176;SDS011;24904;52.208;21.192;2024-03-25T16:59:51;7.70;;;4.20;;
39176;SDS011;24904;52.208;21.192;2024-03-25T17:04:54;6.90;;;4.30;;
39176;SDS011;24904;52.208;21.192;2024-03-25T17:09:57;8.80;;;4.40;;
39176;SDS011;24904;52.208;21.192;2024-03-25T17:15:00;8.80;;;4.60;;
39176;SDS011;24904;52.208;21.192;2024-03-25T17:20:03;9.60;;;4.80;;
39176;SDS011;24904;52.208;21.192;2024-03-25T17:25:11;7.00;;;4.40;;
39176;SDS011;24904;52.208;21.192;2024-03-25T17:30:15;8.80;;;4.60;;
39176;SDS011;24904;52.208;21.192;2024-03-25T17:35:18;8.70;;;4.80;;
39176;SDS011;24904;52.208;21.192;2024-03-25T17:40:21;8.70;;;4.50;;
39176;SDS011;24904;52.208;21.192;2024-03-25T17:45:24;10.50;;;4.90;;
39176;SDS011;24904;52.208;21.192;2024-03-25T17:50:29;6.50;;;4.30;;
39176;SDS011;24904;52.208;21.192;2024-03-25T17:55:32;8.00;;;5.00;;
39176;SDS011;24904;52.208;21.192;2024-03-25T18:00:35;9.50;;;4.80;;
39176;SDS011;24904;52.208;21.192;2024-03-25T18:05:38;8.40;;;4.80;;
39176;SDS011;24904;52.208;21.192;2024-03-25T18:10:41;11.50;;;5.30;;
39176;SDS011;24904;52.208;21.192;2024-03-25T18:15:47;17.70;;;6.40;;
39176;SDS011;24904;52.208;21.192;2024-03-25T18:20:51;9.10;;;5.90;;
39176;SDS011;24904;52.208;21.192;2024-03-25T18:25:54;13.60;;;6.30;;
39176;SDS011;24904;52.208;21.192;2024-03-25T18:30:57;18.90;;;7.50;;
39176;SDS011;24904;52.208;21.192;2024-03-25T18:36:02;16.00;;;7.30;;
39176;SDS011;24904;52.208;21.192;2024-03-25T18:41:05;18.90;;;7.90;;
39176;SDS011;24904;52.208;21.192;2024-03-25T18:46:08;12.80;;;7.50;;
39176;SDS011;24904;52.208;21.192;2024-03-25T18:51:11;13.30;;;7.10;;
39176;SDS011;24904;52.208;21.192;2024-03-25T18:56:14;12.50;;;5.80;;
39176;SDS011;24904;52.208;21.192;2024-03-25T19:01:18;13.00;;;7.40;;
39176;SDS011;24904;52.208;21.192;2024-03-25T19:06:21;13.10;;;6.90;;
39176;SDS011;24904;52.208;21.192;2024-03-25T19:11:24;16.60;;;10.30;;
39176;SDS011;24904;52.208;21.192;2024-03-25T19:16:26;36.20;;;14.70;;
39176;SDS011;24904;52.208;21.192;2024-03-25T19:21:29;29.50;;;14.10;;
39176;SDS011;24904;52.208;21.192;2024-03-25T19:26:33;23.70;;;12.20;;
39176;SDS011;24904;52.208;21.192;2024-03-25T19:31:36;17.90;;;10.00;;
39176;SDS011;24904;52.208;21.192;2024-03-25T19:36:39;18.80;;;8.00;;
39176;SDS011;24904;52.208;21.192;2024-03-25T19:41:42;16.90;;;8.50;;
39176;SDS011;24904;52.208;21.192;2024-03-25T19:46:45;15.40;;;7.60;;
39176;SDS011;24904;52.208;21.192;2024-03-25T19:51:48;10.30;;;7.00;;
39176;SDS011;24904;52.208;21.192;2024-03-25T19:56:51;18.00;;;10.30;;
39176;SDS011;24904;52.208;21.192;2024-03-25T20:01:54;16.10;;;10.10;;
39176;SDS011;24904;52.208;21.192;2024-03-25T20:06:57;19.70;;;10.90;;
39176;SDS011;24904;52.208;21.192;2024-03-25T20:12:00;19.50;;;11.60;;
39176;SDS011;24904;52.208;21.192;2024-03-25T20:17:03;21.10;;;11.30;;
39176;SDS011;24904;52.208;21.192;2024-03-25T20:22:07;17.70;;;11.50;;
39176;SDS011;24904;52.208;21.192;2024-03-25T20:27:10;24.20;;;13.70;;
39176;SDS011;24904;52.208;21.192;2024-03-25T20:32:13;21.40;;;12.70;;
39176;SDS011;24904;52.208;21.192;2024-03-25T20:37:16;25.00;;;14.80;;
39176;SDS011;24904;52.208;21.192;2024-03-25T20:42:19;27.30;;;15.90;;
39176;SDS011;24904;52.208;21.192;2024-03-25T20:47:22;32.80;;;17.10;;
39176;SDS011;24904;52.208;21.192;2024-03-25T20:52:25;31.00;;;18.50;;
39176;SDS011;24904;52.208;21.192;2024-03-25T20:57:28;31.40;;;17.10;;
39176;SDS011;24904;52.208;21.192;2024-03-25T21:02:31;32.20;;;17.50;;
39176;SDS011;24904;52.208;21.192;2024-03-25T21:07:34;28.70;;;17.60;;
39176;SDS011;24904;52.208;21.192;2024-03-25T21:12:37;32.70;;;17.00;;
39176;SDS011;24904;52.208;21.192;2024-03-25T21:17:40;25.50;;;15.80;;
39176;SDS011;24904;52.208;21.192;2024-03-25T21:22:43;19.00;;;11.60;;
39176;SDS011;24904;52.208;21.192;2024-03-25T21:27:46;21.80;;;12.80;;
39176;SDS011;24904;52.208;21.192;2024-03-25T21:32:49;21.50;;;12.20;;
39176;SDS011;24904;52.208;21.192;2024-03-25T21:37:52;21.10;;;12.30;;
39176;SDS011;24904;52.208;21.192;2024-03-25T21:42:55;19.10;;;11.50;;
39176;SDS011;24904;52.208;21.192;2024-03-25T21:47:58;18.30;;;11.80;;
39176;SDS011;24904;52.208;21.192;2024-03-25T21:53:01;20.80;;;11.60;;
39176;SDS011;24904;52.208;21.192;2024-03-25T21:58:05;23.30;;;13.40;;
39176;SDS011;24904;52.208;21.192;2024-03-25T22:03:08;54.80;;;28.20;;
39176;SDS011;24904;52.208;21.192;2024-03-25T22:08:11;57.70;;;30.70;;
39176;SDS011;24904;52.208;21.192;2024-03-25T22:13:14;60.80;;;30.70;;
39176;SDS011;24904;52.208;21.192;2024-03-25T22:18:18;41.40;;;23.40;;
39176;SDS011;24904;52.208;21.192;2024-03-25T22:23:21;35.80;;;19.00;;
39176;SDS011;24904;52.208;21.192;2024-03-25T22:28:24;26.20;;;15.40;;
39176;SDS011;24904;52.208;21.192;2024-03-25T22:33:27;25.30;;;15.00;;
39176;SDS011;24904;52.208;21.192;2024-03-25T22:38:31;25.80;;;15.40;;
39176;SDS011;24904;52.208;21.192;2024-03-25T22:43:34;32.50;;;15.20;;
39176;SDS011;24904;52.208;21.192;2024-03-25T22:48:37;27.10;;;15.00;;
39176;SDS011;24904;52.208;21.192;2024-03-25T22:53:40;19.20;;;12.30;;
39176;SDS011;24904;52.208;21.192;2024-03-25T22:58:43;24.20;;;14.00;;
39176;SDS011;24904;52.208;21.192;2024-03-25T23:03:46;25.70;;;13.20;;
39176;SDS011;24904;52.208;21.192;2024-03-25T23:08:49;22.10;;;13.10;;
39176;SDS011;24904;52.208;21.192;2024-03-25T23:13:52;28.40;;;13.80;;
39176;SDS011;24904;52.208;21.192;2024-03-25T23:18:55;23.30;;;14.50;;
39176;SDS011;24904;52.208;21.192;2024-03-25T23:23:59;22.50;;;14.20;;
39176;SDS011;24904;52.208;21.192;2024-03-25T23:29:04;25.30;;;15.30;;
39176;SDS011;24904;52.208;21.192;2024-03-25T23:34:08;34.80;;;18.90;;
39176;SDS011;24904;52.208;21.192;2024-03-25T23:39:13;30.50;;;18.20;;
39176;SDS011;24904;52.208;21.192;2024-03-25T23:44:17;27.40;;;17.10;;
39176;SDS011;24904;52.208;21.192;2024-03-25T23:49:21;31.80;;;18.40;;
39176;SDS011;24904;52.208;21.192;2024-03-25T23:54:25;32.30;;;17.40;;
39176;SDS011;24904;52.208;21.192;2024-03-25T23:59:29;32.30;;;18.90;;
